Time;durP1;ratioP1;P1;durP2;ratioP2;P2;SDS_P1;SDS_P2;PMS_P1;PMS_P2;Temp;Humidity;BMP_temperature;BMP_pressure;BME280_temperature;BME280_humidity;BME280_pressure;Samples;Min_cycle;Max_cycle;Signal;HPM_P1;HPM_P2
2022/10/27 00:00:46;;;;;;;7.10;4.43;;;11.60;97.60;;;;;;5035124;28;20210;-68
2022/10/27 00:03:14;;;;;;;7.45;5.15;;;11.50;97.30;;;;;;5035589;28;20195;-67
2022/10/27 00:05:42;;;;;;;6.68;4.55;;;11.50;97.50;;;;;;5034999;28;20206;-66
2022/10/27 00:08:09;;;;;;;8.77;4.90;;;11.50;97.60;;;;;;5035584;28;20187;-66
2022/10/27 00:10:37;;;;;;;10.30;5.25;;;11.40;97.40;;;;;;5034725;28;20191;-67
2022/10/27 00:13:07;;;;;;;10.93;4.18;;;11.40;97.30;;;;;;5035392;28;20191;-67
2022/10/27 00:15:34;;;;;;;7.13;3.60;;;11.40;97.20;;;;;;5034904;28;20183;-67
2022/10/27 00:18:01;;;;;;;5.78;3.30;;;11.30;97.00;;;;;;5035218;28;20270;-66
2022/10/27 00:20:28;;;;;;;5.43;2.60;;;11.10;96.10;;;;;;5034659;28;20238;-67
2022/10/27 00:22:55;;;;;;;3.78;2.55;;;11.00;95.90;;;;;;5035194;28;20195;-66
2022/10/27 00:25:23;;;;;;;4.32;3.05;;;10.90;96.00;;;;;;5034967;28;20187;-65
2022/10/27 00:27:53;;;;;;;6.57;2.67;;;10.80;96.40;;;;;;5034969;28;20198;-68
2022/10/27 00:30:21;;;;;;;3.38;2.30;;;10.70;96.70;;;;;;5034905;28;20191;-68
2022/10/27 00:32:49;;;;;;;5.32;3.03;;;10.70;96.80;;;;;;5034742;28;20198;-68
2022/10/27 00:35:17;;;;;;;8.95;3.00;;;10.60;97.00;;;;;;5035012;28;20677;-68
2022/10/27 00:37:45;;;;;;;4.50;2.70;;;10.60;97.40;;;;;;5034581;28;20183;-67
2022/10/27 00:40:13;;;;;;;3.58;2.42;;;10.60;97.30;;;;;;5034779;28;20665;-67
2022/10/27 00:42:40;;;;;;;5.78;3.65;;;10.60;97.60;;;;;;5034220;28;20634;-66
2022/10/27 00:45:12;;;;;;;4.97;3.30;;;10.60;98.00;;;;;;5034886;28;20650;-67
2022/10/27 00:47:39;;;;;;;4.88;3.67;;;10.60;98.20;;;;;;5034648;28;20187;-67
2022/10/27 00:50:11;;;;;;;4.00;2.10;;;10.60;98.20;;;;;;5034679;28;20646;-67
2022/10/27 00:52:43;;;;;;;4.47;2.75;;;10.60;98.10;;;;;;5034505;28;20297;-66
2022/10/27 00:55:14;;;;;;;4.18;2.92;;;10.60;97.60;;;;;;5034751;28;20191;-66
2022/10/27 00:57:44;;;;;;;4.97;2.30;;;10.50;97.40;;;;;;5034022;28;20203;-67
2022/10/27 01:00:14;;;;;;;4.07;2.70;;;10.50;97.30;;;;;;5034493;28;20277;-66
2022/10/27 01:02:42;;;;;;;3.22;2.25;;;10.50;97.10;;;;;;5034226;28;20191;-67
2022/10/27 01:05:14;;;;;;;4.95;2.00;;;10.50;96.80;;;;;;5034567;28;20207;-67
2022/10/27 01:07:43;;;;;;;4.38;2.25;;;10.40;96.70;;;;;;5034479;28;20536;-66
2022/10/27 01:10:11;;;;;;;4.20;2.80;;;10.40;96.80;;;;;;5034109;28;20266;-67
2022/10/27 01:12:39;;;;;;;5.57;2.90;;;10.40;97.00;;;;;;5033912;28;20191;-68
2022/10/27 01:15:12;;;;;;;5.45;2.95;;;10.40;97.20;;;;;;5034174;28;20274;-68
2022/10/27 01:17:52;;;;;;;8.63;2.67;;;10.40;97.30;;;;;;5034037;28;20652;-67
2022/10/27 01:20:40;;;;;;;6.97;2.78;;;10.40;97.50;;;;;;5033894;28;20313;-68
2022/10/27 01:23:14;;;;;;;6.25;3.22;;;10.40;97.50;;;;;;5033474;28;20260;-67
2022/10/27 01:26:14;;;;;;;3.35;2.70;;;10.40;97.60;;;;;;5034119;28;20199;-67
2022/10/27 01:29:11;;;;;;;6.32;3.92;;;10.30;97.30;;;;;;5033773;28;20634;-67
2022/10/27 01:31:45;;;;;;;6.70;4.30;;;10.30;96.90;;;;;;5033591;28;20190;-66
2022/10/27 01:34:21;;;;;;;5.85;3.90;;;10.20;96.80;;;;;;5033758;28;20592;-67
2022/10/27 01:36:58;;;;;;;6.32;3.35;;;10.30;96.90;;;;;;5034185;28;20205;-67
2022/10/27 01:39:30;;;;;;;5.70;4.35;;;10.20;97.00;;;;;;5033466;28;20242;-67
2022/10/27 01:42:06;;;;;;;4.35;2.70;;;10.20;97.10;;;;;;5033889;28;20229;-68
2022/10/27 01:44:38;;;;;;;4.95;2.67;;;10.20;97.10;;;;;;5033580;28;20661;-67
2022/10/27 01:47:08;;;;;;;4.45;3.00;;;10.10;96.70;;;;;;5033680;28;20198;-66
2022/10/27 01:49:39;;;;;;;4.35;3.00;;;10.10;96.30;;;;;;5033549;28;20198;-69
2022/10/27 01:52:09;;;;;;;5.40;3.22;;;10.00;96.40;;;;;;5032705;28;20246;-67
2022/10/27 01:54:37;;;;;;;4.32;2.90;;;10.00;96.50;;;;;;5030263;28;20285;-68
2022/10/27 01:57:16;;;;;;;9.85;2.88;;;10.00;96.40;;;;;;5033077;28;20198;-67
2022/10/27 01:59:58;;;;;;;3.65;3.00;;;9.90;96.70;;;;;;5033430;28;20191;-68
2022/10/27 02:02:35;;;;;;;4.07;2.50;;;9.80;96.50;;;;;;5032803;28;20219;-67
2022/10/27 02:05:09;;;;;;;4.03;2.15;;;9.70;96.90;;;;;;5033207;28;20195;-67
2022/10/27 02:07:58;;;;;;;3.83;2.15;;;9.70;97.00;;;;;;5032925;28;20182;-66
2022/10/27 02:10:41;;;;;;;4.78;2.30;;;9.70;97.00;;;;;;5033399;28;20237;-67
2022/10/27 02:13:09;;;;;;;3.25;2.08;;;9.70;97.10;;;;;;5032867;28;20201;-67
2022/10/27 02:15:40;;;;;;;5.72;2.55;;;9.60;97.00;;;;;;5033087;28;20246;-67
2022/10/27 02:18:12;;;;;;;4.13;1.90;;;9.50;96.80;;;;;;5030504;28;20219;-68
2022/10/27 02:20:43;;;;;;;3.55;1.65;;;9.50;97.10;;;;;;5022500;28;20239;-68
2022/10/27 02:23:15;;;;;;;3.70;2.45;;;9.50;97.30;;;;;;5012532;28;20651;-66
2022/10/27 02:25:52;;;;;;;6.07;2.17;;;9.50;97.30;;;;;;5013574;28;20207;-66
2022/10/27 02:28:25;;;;;;;3.90;1.70;;;9.50;97.40;;;;;;5012424;28;20199;-68
2022/10/27 02:30:56;;;;;;;2.95;1.88;;;9.50;97.50;;;;;;5011414;28;20192;-67
2022/10/27 02:33:26;;;;;;;4.97;2.10;;;9.40;97.00;;;;;;5012709;28;20535;-68
2022/10/27 02:35:54;;;;;;;4.63;2.70;;;9.40;96.80;;;;;;5012142;28;20190;-67
2022/10/27 02:38:28;;;;;;;2.88;2.22;;;9.30;96.50;;;;;;5012700;28;20191;-67
2022/10/27 02:40:55;;;;;;;3.80;2.05;;;9.30;96.60;;;;;;5011879;28;20241;-67
2022/10/27 02:43:23;;;;;;;3.15;2.50;;;9.30;96.90;;;;;;5012508;28;20199;-68
2022/10/27 02:45:50;;;;;;;3.33;2.30;;;9.30;97.10;;;;;;5012507;28;20196;-67
2022/10/27 02:48:18;;;;;;;3.80;1.98;;;9.30;97.50;;;;;;5012727;28;20191;-67
2022/10/27 02:50:46;;;;;;;4.00;2.40;;;9.30;97.30;;;;;;5012247;28;20200;-67
2022/10/27 02:53:13;;;;;;;8.73;2.75;;;9.20;96.40;;;;;;4993062;28;20260;-67
2022/10/27 02:55:40;;;;;;;4.07;2.08;;;9.10;96.50;;;;;;4993056;28;20196;-67
2022/10/27 02:58:08;;;;;;;3.05;2.35;;;9.10;97.10;;;;;;5011814;28;20195;-66
2022/10/27 03:00:35;;;;;;;2.50;1.80;;;9.10;97.30;;;;;;5012447;28;20195;-67
2022/10/27 03:03:02;;;;;;;5.68;2.30;;;9.10;97.50;;;;;;5011801;28;20191;-67
2022/10/27 03:05:30;;;;;;;4.95;2.78;;;9.10;97.30;;;;;;5012156;28;20191;-67
2022/10/27 03:07:58;;;;;;;3.95;2.50;;;9.10;97.30;;;;;;5011565;28;20234;-67
2022/10/27 03:10:26;;;;;;;3.78;2.38;;;9.10;97.20;;;;;;5012334;28;20259;-67
2022/10/27 03:12:53;;;;;;;6.18;3.33;;;9.00;97.10;;;;;;5011845;28;20246;-67
2022/10/27 03:15:21;;;;;;;6.97;3.25;;;9.00;96.90;;;;;;5011940;28;20188;-67
2022/10/27 03:17:49;;;;;;;8.73;5.72;;;9.00;97.10;;;;;;5011642;28;20690;-67
2022/10/27 03:20:17;;;;;;;6.88;6.10;;;9.00;97.20;;;;;;5012368;28;20226;-67
2022/10/27 03:22:44;;;;;;;8.70;5.75;;;9.00;97.40;;;;;;5011194;28;20220;-67
2022/10/27 03:25:14;;;;;;;10.00;6.30;;;9.00;97.50;;;;;;5012323;28;20515;-66
2022/10/27 03:27:42;;;;;;;10.65;7.03;;;9.00;97.70;;;;;;5010321;28;20197;-67
2022/10/27 03:30:12;;;;;;;8.93;5.53;;;9.00;98.00;;;;;;5012464;28;20312;-67
2022/10/27 03:32:39;;;;;;;13.60;10.88;;;9.00;98.20;;;;;;5036040;28;20198;-67
2022/10/27 03:35:07;;;;;;;10.27;7.13;;;9.00;98.10;;;;;;5017165;28;20192;-69
2022/10/27 03:37:35;;;;;;;11.93;8.73;;;9.00;98.10;;;;;;5016183;28;20191;-67
2022/10/27 03:40:02;;;;;;;9.60;6.88;;;9.00;97.80;;;;;;5016115;28;20195;-68
2022/10/27 03:42:30;;;;;;;9.85;6.53;;;9.00;97.60;;;;;;5015658;28;20242;-67
2022/10/27 03:44:57;;;;;;;6.57;4.82;;;8.90;97.70;;;;;;5015933;28;20674;-68
2022/10/27 03:47:25;;;;;;;6.30;4.78;;;8.90;97.30;;;;;;5015765;28;20602;-67
2022/10/27 03:49:52;;;;;;;7.45;4.80;;;8.80;97.10;;;;;;5016166;28;20535;-68
2022/10/27 03:52:21;;;;;;;9.57;6.13;;;8.70;98.10;;;;;;5015675;28;20223;-67
2022/10/27 03:54:48;;;;;;;6.10;5.20;;;8.80;98.30;;;;;;5016011;28;20302;-67
2022/10/27 03:57:15;;;;;;;5.97;4.97;;;8.80;98.20;;;;;;5015915;28;20851;-67
2022/10/27 03:59:44;;;;;;;8.68;4.57;;;8.80;98.20;;;;;;5015931;28;20217;-69
2022/10/27 04:02:11;;;;;;;5.78;5.15;;;8.80;98.10;;;;;;5015561;28;20191;-67
2022/10/27 04:04:38;;;;;;;4.10;3.70;;;8.80;97.90;;;;;;5015952;28;20238;-67
2022/10/27 04:07:05;;;;;;;8.25;4.15;;;8.80;97.60;;;;;;5015821;28;20191;-67
2022/10/27 04:09:32;;;;;;;5.25;3.97;;;8.80;97.50;;;;;;5016117;28;20283;-67
2022/10/27 04:11:59;;;;;;;4.40;3.47;;;8.80;97.30;;;;;;5015120;28;20246;-66
2022/10/27 04:14:27;;;;;;;5.43;3.60;;;8.80;96.90;;;;;;5016020;28;20188;-67
2022/10/27 04:16:57;;;;;;;13.43;3.97;;;8.70;96.80;;;;;;5015286;28;20194;-67
2022/10/27 04:19:24;;;;;;;6.45;3.42;;;8.70;96.70;;;;;;5015772;28;20246;-68
2022/10/27 04:21:52;;;;;;;7.80;3.80;;;8.60;96.90;;;;;;5034041;28;20297;-67
2022/10/27 04:24:19;;;;;;;5.53;4.93;;;8.70;97.00;;;;;;5035794;28;20198;-68
2022/10/27 04:26:46;;;;;;;4.18;3.00;;;8.70;97.10;;;;;;5034776;28;20248;-67
2022/10/27 04:29:13;;;;;;;6.90;3.60;;;8.60;97.20;;;;;;5034672;28;20266;-68
2022/10/27 04:31:41;;;;;;;4.30;3.20;;;8.60;97.20;;;;;;5034841;28;20780;-67
2022/10/27 04:34:09;;;;;;;4.40;2.78;;;8.50;97.10;;;;;;5035253;28;20202;-68
2022/10/27 04:36:36;;;;;;;8.55;2.70;;;8.50;96.90;;;;;;5034965;28;20223;-67
2022/10/27 04:39:03;;;;;;;4.25;2.85;;;8.50;96.30;;;;;;5034845;28;20828;-67
2022/10/27 04:41:32;;;;;;;4.93;2.90;;;8.40;96.60;;;;;;5026346;28;20241;-68
2022/10/27 04:43:59;;;;;;;3.85;2.90;;;8.40;96.90;;;;;;5034709;28;20191;-67
2022/10/27 04:46:27;;;;;;;11.88;3.00;;;8.40;97.00;;;;;;5035106;28;20202;-67
2022/10/27 04:48:54;;;;;;;6.05;3.20;;;8.30;96.90;;;;;;5034821;28;20187;-67
2022/10/27 04:51:24;;;;;;;4.07;2.58;;;8.20;96.70;;;;;;5031912;28;20206;-67
2022/10/27 04:53:53;;;;;;;4.47;2.90;;;8.30;96.70;;;;;;5013137;28;20196;-69
2022/10/27 04:56:20;;;;;;;4.35;2.80;;;8.20;96.80;;;;;;5015712;28;20266;-69
2022/10/27 04:58:47;;;;;;;5.15;3.20;;;8.30;97.10;;;;;;5014703;28;20199;-67
2022/10/27 05:01:19;;;;;;;7.40;3.55;;;8.30;97.30;;;;;;5016700;28;20557;-67
2022/10/27 05:03:49;;;;;;;6.00;4.28;;;8.30;97.50;;;;;;5014532;28;20200;-67
2022/10/27 05:06:19;;;;;;;5.65;3.30;;;8.20;97.40;;;;;;5014210;28;20673;-68
2022/10/27 05:08:48;;;;;;;7.82;3.30;;;8.20;97.40;;;;;;5028023;28;20202;-67
2022/10/27 05:11:15;;;;;;;4.47;3.13;;;8.20;97.30;;;;;;5018622;28;20242;-68
2022/10/27 05:13:43;;;;;;;4.38;3.17;;;8.10;97.00;;;;;;5030383;28;20439;-67
2022/10/27 05:16:11;;;;;;;5.65;3.03;;;8.00;97.10;;;;;;5018421;28;20277;-67
2022/10/27 05:18:38;;;;;;;7.28;3.78;;;8.00;97.30;;;;;;5031388;28;20567;-67
2022/10/27 05:21:05;;;;;;;13.07;7.60;;;8.00;97.30;;;;;;5018527;28;20686;-67
2022/10/27 05:23:37;;;;;;;86.63;47.33;;;8.00;97.40;;;;;;5004509;28;20526;-68
2022/10/27 05:26:06;;;;;;;17.75;10.25;;;8.00;97.60;;;;;;5003630;28;20180;-68
2022/10/27 05:28:33;;;;;;;11.40;7.30;;;7.90;98.10;;;;;;5008057;28;20200;-67
2022/10/27 05:31:02;;;;;;;12.13;7.85;;;7.90;98.20;;;;;;5012027;28;20191;-67
2022/10/27 05:33:30;;;;;;;11.27;6.43;;;8.00;98.20;;;;;;5011010;28;20211;-67
2022/10/27 05:35:57;;;;;;;15.85;10.55;;;8.00;98.00;;;;;;5011903;28;20278;-67
2022/10/27 05:38:24;;;;;;;10.70;8.48;;;7.90;97.80;;;;;;5012958;28;20258;-68
2022/10/27 05:40:56;;;;;;;7.90;5.30;;;7.90;97.70;;;;;;5012748;28;20198;-68
2022/10/27 05:43:24;;;;;;;5.35;4.47;;;7.90;97.70;;;;;;5009119;28;20589;-67
2022/10/27 05:45:53;;;;;;;6.18;4.00;;;7.90;98.00;;;;;;5007267;28;20243;-69
2022/10/27 05:48:21;;;;;;;6.43;5.10;;;8.00;98.00;;;;;;4994001;28;20196;-68
2022/10/27 05:50:53;;;;;;;6.68;3.90;;;7.90;97.60;;;;;;5009657;28;20192;-68
2022/10/27 05:53:21;;;;;;;14.18;6.18;;;7.80;97.30;;;;;;5011279;28;20268;-67
2022/10/27 05:55:48;;;;;;;11.05;5.35;;;7.90;97.40;;;;;;5012333;28;20283;-69
2022/10/27 05:58:15;;;;;;;93.57;52.00;;;7.80;97.30;;;;;;5011277;28;20238;-67
2022/10/27 06:00:44;;;;;;;188.93;96.75;;;7.80;97.50;;;;;;5011497;28;20713;-67
2022/10/27 06:03:19;;;;;;;172.25;90.30;;;7.90;98.00;;;;;;5011408;28;20231;-67
2022/10/27 06:05:47;;;;;;;140.02;76.32;;;8.00;98.30;;;;;;5011684;28;20196;-67
2022/10/27 06:08:13;;;;;;;121.07;71.75;;;8.10;98.70;;;;;;5011442;28;20632;-67
2022/10/27 06:10:41;;;;;;;112.75;75.63;;;8.10;98.60;;;;;;5011428;28;20200;-68
2022/10/27 06:13:12;;;;;;;65.75;41.38;;;8.20;98.70;;;;;;5011232;28;20278;-67
2022/10/27 06:15:39;;;;;;;23.55;18.95;;;8.20;98.10;;;;;;5004976;28;20227;-68
2022/10/27 06:18:08;;;;;;;28.25;19.88;;;8.30;98.10;;;;;;5010090;28;20191;-67
2022/10/27 06:20:35;;;;;;;26.60;20.60;;;8.40;98.20;;;;;;5019400;28;20708;-67
2022/10/27 06:23:02;;;;;;;26.13;18.27;;;8.50;98.00;;;;;;5029357;28;20188;-68
2022/10/27 06:25:30;;;;;;;18.92;12.68;;;8.70;97.90;;;;;;5025689;28;20510;-67
2022/10/27 06:27:57;;;;;;;14.70;9.38;;;8.90;97.80;;;;;;5028733;28;20195;-67
2022/10/27 06:30:24;;;;;;;18.15;11.43;;;9.10;98.00;;;;;;5030184;28;20191;-67
2022/10/27 06:32:51;;;;;;;21.55;13.85;;;9.30;97.20;;;;;;5032156;28;20305;-67
2022/10/27 06:35:19;;;;;;;18.25;13.15;;;9.50;97.40;;;;;;5033098;28;20274;-67
2022/10/27 06:37:47;;;;;;;25.55;13.10;;;9.80;97.40;;;;;;5051844;28;20285;-67
2022/10/27 06:40:16;;;;;;;11.25;8.18;;;10.10;96.60;;;;;;5052165;28;20499;-67
2022/10/27 06:42:45;;;;;;;10.48;7.28;;;10.50;96.10;;;;;;5052644;28;20206;-68
2022/10/27 06:45:12;;;;;;;9.35;6.85;;;10.80;96.00;;;;;;5052160;28;20244;-67
2022/10/27 06:47:40;;;;;;;13.52;9.25;;;11.10;94.50;;;;;;5052242;28;20229;-67
2022/10/27 06:50:08;;;;;;;19.02;10.88;;;11.10;93.60;;;;;;5052052;28;20193;-68
2022/10/27 06:52:38;;;;;;;11.45;7.10;;;11.20;93.00;;;;;;5052485;28;20692;-67
2022/10/27 06:55:06;;;;;;;9.00;6.25;;;11.20;93.00;;;;;;5052256;28;20716;-67
2022/10/27 06:57:40;;;;;;;6.25;4.80;;;11.30;93.10;;;;;;5045402;28;20276;-67
2022/10/27 07:00:09;;;;;;;5.90;4.22;;;11.70;93.40;;;;;;5052832;28;20201;-67
2022/10/27 07:02:36;;;;;;;7.35;4.82;;;12.30;92.70;;;;;;5053033;28;20186;-67
2022/10/27 07:05:04;;;;;;;9.55;6.53;;;12.80;91.90;;;;;;5052748;28;20252;-70
2022/10/27 07:07:31;;;;;;;10.90;6.25;;;13.20;90.50;;;;;;5044921;28;20657;-67
2022/10/27 07:09:59;;;;;;;23.77;15.90;;;13.50;88.30;;;;;;5052571;28;20299;-68
2022/10/27 07:12:26;;;;;;;19.58;12.60;;;13.60;86.90;;;;;;5052759;28;20253;-67
2022/10/27 07:14:53;;;;;;;10.65;7.65;;;13.70;86.40;;;;;;5052685;28;20248;-68
2022/10/27 07:17:20;;;;;;;9.70;7.03;;;13.90;86.70;;;;;;5052773;28;20283;-68
2022/10/27 07:19:47;;;;;;;13.57;9.93;;;14.40;82.30;;;;;;5052463;28;20473;-67
2022/10/27 07:22:14;;;;;;;14.33;8.63;;;14.70;83.70;;;;;;5052787;28;20441;-67
2022/10/27 07:24:41;;;;;;;12.20;8.27;;;14.70;81.70;;;;;;5052609;28;20472;-67
2022/10/27 07:27:09;;;;;;;11.67;8.37;;;14.80;81.90;;;;;;5052365;28;20436;-67
2022/10/27 07:29:36;;;;;;;13.50;9.20;;;15.20;81.60;;;;;;5051956;28;20940;-67
2022/10/27 07:32:03;;;;;;;8.73;6.30;;;16.00;79.40;;;;;;5052221;28;20531;-68
2022/10/27 07:34:30;;;;;;;9.17;6.03;;;16.70;75.30;;;;;;5052532;28;20476;-68
2022/10/27 07:36:57;;;;;;;9.07;5.33;;;17.40;73.50;;;;;;5052454;28;20508;-67
2022/10/27 07:39:24;;;;;;;6.00;4.90;;;18.00;71.30;;;;;;5052202;28;20506;-68
2022/10/27 07:41:51;;;;;;;9.63;7.03;;;18.30;68.80;;;;;;5052607;28;20795;-68
2022/10/27 07:44:20;;;;;;;6.97;3.80;;;18.70;66.20;;;;;;5052549;28;20473;-69
2022/10/27 07:46:47;;;;;;;11.60;6.60;;;19.20;64.40;;;;;;5052441;28;20464;-68
2022/10/27 07:49:14;;;;;;;16.07;9.53;;;19.80;62.40;;;;;;5052490;28;20939;-68
2022/10/27 07:51:40;;;;;;;9.20;7.70;;;20.40;58.70;;;;;;5052460;28;20480;-67
2022/10/27 07:54:07;;;;;;;15.80;4.90;;;21.00;58.20;;;;;;5051566;28;20913;-68
2022/10/27 07:56:36;;;;;;;10.87;3.97;;;21.80;57.90;;;;;;5052387;28;20491;-68
2022/10/27 07:59:03;;;;;;;5.10;3.17;;;22.50;54.70;;;;;;5052017;28;20491;-69
2022/10/27 08:01:31;;;;;;;5.80;2.73;;;23.20;53.30;;;;;;5051828;28;20483;-66
2022/10/27 08:03:58;;;;;;;5.33;3.73;;;23.70;51.10;;;;;;5052180;28;20437;-68
2022/10/27 08:06:25;;;;;;;10.97;9.20;;;23.80;49.90;;;;;;5052387;28;20503;-70
2022/10/27 08:08:52;;;;;;;9.57;8.20;;;24.30;49.20;;;;;;5051841;28;20899;-69
2022/10/27 08:11:19;;;;;;;13.40;9.10;;;25.00;48.60;;;;;;5052238;28;20437;-69
2022/10/27 08:13:46;;;;;;;10.60;6.27;;;25.60;46.10;;;;;;5052054;28;20488;-67
2022/10/27 08:16:13;;;;;;;8.50;5.47;;;26.30;44.80;;;;;;5052436;28;20554;-70
2022/10/27 08:18:45;;;;;;;10.87;4.60;;;26.90;42.80;;;;;;5055869;28;20503;-69
2022/10/27 08:21:12;;;;;;;7.30;3.50;;;27.50;42.50;;;;;;5055114;28;20504;-69
2022/10/27 08:23:40;;;;;;;12.83;4.63;;;28.00;40.60;;;;;;5055874;28;20453;-68
2022/10/27 08:26:07;;;;;;;7.37;3.30;;;28.50;39.30;;;;;;5055696;28;20451;-69
2022/10/27 08:28:34;;;;;;;10.60;4.50;;;29.30;38.50;;;;;;5055412;28;20437;-66
2022/10/27 08:31:01;;;;;;;5.40;2.67;;;30.10;36.60;;;;;;5055291;28;20840;-67
2022/10/27 08:33:28;;;;;;;5.30;3.30;;;30.80;34.70;;;;;;5054954;28;20566;-67
2022/10/27 08:35:56;;;;;;;7.07;3.33;;;31.50;33.90;;;;;;5054926;28;20510;-68
2022/10/27 08:38:23;;;;;;;9.27;3.70;;;32.30;32.30;;;;;;5054443;28;20448;-68
2022/10/27 08:41:11;;;;;;;9.87;6.90;;;33.00;29.80;;;;;;5035668;28;20473;-68
2022/10/27 08:44:00;;;;;;;7.47;6.40;;;33.20;28.10;;;;;;5027887;28;20488;-67
2022/10/27 08:46:36;;;;;;;9.20;3.27;;;33.50;27.80;;;;;;5019793;28;20551;-68
2022/10/27 08:49:10;;;;;;;8.87;3.47;;;33.70;27.80;;;;;;5035152;28;20445;-67
2022/10/27 08:51:45;;;;;;;4.20;2.90;;;34.40;27.20;;;;;;5027771;28;20834;-70
2022/10/27 08:54:12;;;;;;;3.80;1.90;;;34.80;25.50;;;;;;5034576;28;20437;-67
2022/10/27 08:56:43;;;;;;;4.00;2.27;;;35.50;25.20;;;;;;5034202;28;20481;-67
2022/10/27 08:59:18;;;;;;;5.50;2.43;;;36.20;25.40;;;;;;5034658;28;20441;-67
2022/10/27 09:01:58;;;;;;;4.00;2.00;;;36.80;24.70;;;;;;5034929;28;20444;-67
2022/10/27 09:04:50;;;;;;;5.37;2.50;;;37.80;23.70;;;;;;5033884;28;20481;-68
2022/10/27 09:07:31;;;;;;;6.70;2.67;;;37.50;22.30;;;;;;5034535;28;20484;-68
2022/10/27 09:10:06;;;;;;;5.90;2.60;;;37.50;23.60;;;;;;5034768;28;20469;-67
2022/10/27 09:13:03;;;;;;;6.90;2.53;;;38.20;23.00;;;;;;5034189;28;20437;-67
2022/10/27 09:15:42;;;;;;;3.93;2.13;;;38.90;22.40;;;;;;5033560;28;20508;-67
2022/10/27 09:18:18;;;;;;;6.10;2.87;;;39.30;22.10;;;;;;5034646;28;20437;-67
2022/10/27 09:20:47;;;;;;;4.53;2.40;;;39.30;22.00;;;;;;5034605;28;20493;-68
2022/10/27 09:23:21;;;;;;;7.57;2.73;;;39.40;21.80;;;;;;5034415;28;20489;-68
2022/10/27 09:25:51;;;;;;;6.67;3.03;;;39.80;21.50;;;;;;5034793;28;20444;-69
2022/10/27 09:28:29;;;;;;;6.80;2.53;;;40.60;21.00;;;;;;5034566;28;20445;-68
2022/10/27 09:30:58;;;;;;;10.40;2.60;;;41.70;20.30;;;;;;5034175;28;20524;-68
2022/10/27 09:33:29;;;;;;;4.70;2.67;;;42.30;18.60;;;;;;5034327;28;20804;-68
2022/10/27 09:35:56;;;;;;;6.50;3.30;;;42.10;19.30;;;;;;5034336;28;20798;-68
2022/10/27 09:38:27;;;;;;;5.47;3.10;;;42.20;19.00;;;;;;5034308;28;20449;-68
2022/10/27 09:40:54;;;;;;;7.43;2.33;;;42.50;19.20;;;;;;5034475;28;20787;-68
2022/10/27 09:43:22;;;;;;;4.50;2.27;;;42.70;18.60;;;;;;5033929;28;20535;-68
2022/10/27 09:46:02;;;;;;;7.27;2.17;;;42.70;18.60;;;;;;5034281;28;20473;-68
2022/10/27 09:48:29;;;;;;;5.47;2.10;;;42.90;18.10;;;;;;5034177;28;20448;-68
2022/10/27 09:51:01;;;;;;;5.37;2.47;;;42.10;18.20;;;;;;5033662;28;20438;-68
2022/10/27 09:53:49;;;;;;;4.70;2.57;;;41.60;19.00;;;;;;5034571;28;20453;-68
2022/10/27 09:56:19;;;;;;;7.10;2.73;;;42.20;18.80;;;;;;5034253;28;21000;-68
2022/10/27 09:58:56;;;;;;;4.03;2.23;;;43.30;18.50;;;;;;5033809;28;20473;-68
2022/10/27 10:01:25;;;;;;;5.97;1.97;;;44.50;17.30;;;;;;5033873;28;20829;-68
2022/10/27 10:03:55;;;;;;;5.50;2.37;;;45.60;16.40;;;;;;5033765;28;20568;-69
2022/10/27 10:06:33;;;;;;;6.10;2.13;;;46.30;16.00;;;;;;5033810;28;20438;-69
2022/10/27 10:09:25;;;;;;;7.03;2.60;;;46.80;15.90;;;;;;5033918;28;20495;-68
2022/10/27 10:12:11;;;;;;;4.37;2.33;;;47.60;15.80;;;;;;5033790;28;20437;-68
2022/10/27 10:14:38;;;;;;;5.00;2.00;;;48.20;14.80;;;;;;5026639;28;20517;-68
2022/10/27 10:17:05;;;;;;;6.10;1.80;;;48.70;14.70;;;;;;5033653;28;20437;-68
2022/10/27 10:19:32;;;;;;;6.10;2.17;;;49.00;14.20;;;;;;5033238;28;20465;-69
2022/10/27 10:22:00;;;;;;;6.13;2.17;;;49.30;14.00;;;;;;5033169;28;20473;-69
2022/10/27 10:24:35;;;;;;;7.43;2.90;;;49.50;13.70;;;;;;5033052;28;20835;-69
2022/10/27 10:27:09;;;;;;;4.20;1.70;;;49.80;14.20;;;;;;5033309;28;20467;-68
2022/10/27 10:29:48;;;;;;;6.43;2.67;;;50.10;13.70;;;;;;5026679;28;20438;-69
2022/10/27 10:32:17;;;;;;;7.13;2.37;;;49.90;12.50;;;;;;5033368;28;21015;-69
2022/10/27 10:34:44;;;;;;;6.33;2.33;;;49.60;13.80;;;;;;5033043;28;21057;-68
2022/10/27 10:37:31;;;;;;;4.43;2.33;;;50.10;13.40;;;;;;5032872;28;20528;-68
2022/10/27 10:40:25;;;;;;;5.70;1.90;;;50.60;13.50;;;;;;5032762;28;20492;-68
2022/10/27 10:43:05;;;;;;;7.17;2.50;;;51.10;13.10;;;;;;5033250;28;20508;-69
2022/10/27 10:45:40;;;;;;;9.40;2.43;;;51.70;12.70;;;;;;5033298;28;20820;-68
2022/10/27 10:48:25;;;;;;;6.20;2.30;;;51.90;11.70;;;;;;5033066;28;20473;-69
2022/10/27 10:50:53;;;;;;;3.40;1.77;;;51.80;12.20;;;;;;5033206;28;20515;-68
2022/10/27 10:53:25;;;;;;;7.40;2.20;;;51.70;12.70;;;;;;5033166;28;20983;-69
2022/10/27 10:55:56;;;;;;;4.20;2.30;;;52.00;12.20;;;;;;5033133;28;20545;-69
2022/10/27 10:58:29;;;;;;;4.90;1.87;;;52.10;12.10;;;;;;5032928;28;20445;-73
2022/10/27 11:00:58;;;;;;;6.87;2.07;;;52.30;12.00;;;;;;5033061;28;20438;-69
2022/10/27 11:03:29;;;;;;;6.30;2.10;;;52.50;12.20;;;;;;5033125;28;20788;-70
2022/10/27 11:05:59;;;;;;;5.97;1.93;;;52.90;11.30;;;;;;5016459;28;20438;-68
2022/10/27 11:08:34;;;;;;;4.60;1.67;;;52.90;11.70;;;;;;5013364;28;20494;-74
2022/10/27 11:11:04;;;;;;;4.00;2.17;;;53.00;11.50;;;;;;5013461;28;20466;-68
2022/10/27 11:13:42;;;;;;;3.80;1.70;;;52.90;11.20;;;;;;5011283;28;20845;-68
2022/10/27 11:16:11;;;;;;;5.97;2.40;;;52.70;10.80;;;;;;5012957;28;20473;-68
2022/10/27 11:18:48;;;;;;;4.70;2.60;;;52.60;11.30;;;;;;5012250;28;20430;-68
2022/10/27 11:21:25;;;;;;;5.17;2.03;;;52.70;11.30;;;;;;5024288;28;20518;-68
2022/10/27 11:23:55;;;;;;;5.20;1.77;;;52.80;11.40;;;;;;5032870;28;20573;-69
2022/10/27 11:26:28;;;;;;;4.20;1.40;;;53.00;11.40;;;;;;5026803;28;20526;-69
2022/10/27 11:29:10;;;;;;;7.47;2.33;;;53.00;11.10;;;;;;5048239;28;20978;-68
2022/10/27 11:31:44;;;;;;;6.30;2.17;;;53.10;10.60;;;;;;5052355;28;20528;-69
2022/10/27 11:34:24;;;;;;;4.30;2.07;;;52.70;10.90;;;;;;5051927;28;20553;-68
2022/10/27 11:36:56;;;;;;;3.60;1.90;;;52.80;11.20;;;;;;5052462;28;20432;-69
2022/10/27 11:39:30;;;;;;;6.73;2.30;;;52.90;10.30;;;;;;5052332;28;20978;-68
2022/10/27 11:42:09;;;;;;;4.30;2.00;;;52.50;10.30;;;;;;5052614;28;20441;-69
2022/10/27 11:44:46;;;;;;;2.77;1.30;;;52.60;10.90;;;;;;5052640;28;20456;-68
2022/10/27 11:47:19;;;;;;;5.20;2.10;;;52.80;11.00;;;;;;5052398;28;20475;-68
2022/10/27 11:49:55;;;;;;;4.80;1.87;;;52.90;10.50;;;;;;5052266;28;20490;-68
2022/10/27 11:52:28;;;;;;;4.57;1.57;;;52.90;10.20;;;;;;5054675;28;20475;-68
2022/10/27 11:54:59;;;;;;;4.90;1.90;;;52.70;10.30;;;;;;5056528;28;20831;-69
2022/10/27 11:57:36;;;;;;;3.80;1.77;;;52.50;9.90;;;;;;5056402;28;20942;-68
2022/10/27 12:00:18;;;;;;;9.20;2.20;;;52.10;10.50;;;;;;5056306;28;20483;-73
2022/10/27 12:03:32;;;;;;;3.30;1.40;;;52.20;10.20;;;;;;5056164;28;20490;-67
2022/10/27 12:06:05;;;;;;;4.40;1.50;;;51.50;10.10;;;;;;4974842;28;20483;-66
2022/10/27 12:08:43;;;;;;;7.30;2.10;;;51.00;10.50;;;;;;5040014;28;20488;-66
2022/10/27 12:11:33;;;;;;;5.13;1.80;;;50.60;10.30;;;;;;5056062;28;20827;-66
2022/10/27 12:14:09;;;;;;;5.83;2.00;;;50.60;10.60;;;;;;5056072;28;20902;-67
2022/10/27 12:16:44;;;;;;;4.87;1.77;;;50.70;10.70;;;;;;5055955;28;20445;-66
2022/10/27 12:19:18;;;;;;;4.70;2.17;;;50.40;11.00;;;;;;5055831;28;20436;-68
2022/10/27 12:21:49;;;;;;;5.00;2.10;;;50.10;11.10;;;;;;5019915;28;20999;-67
2022/10/27 12:24:24;;;;;;;4.83;2.07;;;49.80;11.30;;;;;;5016180;28;20434;-67
2022/10/27 12:26:56;;;;;;;7.50;1.50;;;49.60;11.40;;;;;;5015772;28;20441;-67
2022/10/27 12:29:31;;;;;;;4.20;1.30;;;49.40;11.20;;;;;;5016115;28;20957;-67
2022/10/27 12:32:03;;;;;;;8.67;1.90;;;49.40;11.40;;;;;;5015842;28;20493;-67
2022/10/27 12:34:35;;;;;;;7.40;1.60;;;49.00;11.50;;;;;;5015679;28;20557;-66
2022/10/27 12:37:11;;;;;;;3.53;1.90;;;48.70;11.50;;;;;;5015944;28;20485;-72
2022/10/27 12:39:49;;;;;;;7.17;2.20;;;48.60;11.80;;;;;;5015855;28;20929;-67
2022/10/27 12:42:23;;;;;;;5.40;1.60;;;48.50;11.80;;;;;;5015855;28;20497;-67
2022/10/27 12:44:59;;;;;;;6.30;1.80;;;48.10;12.40;;;;;;5015528;28;20925;-67
2022/10/27 12:47:53;;;;;;;6.57;2.13;;;47.60;13.30;;;;;;5015782;28;20466;-67
2022/10/27 12:50:33;;;;;;;4.50;1.77;;;47.20;13.70;;;;;;5015469;28;20435;-67
2022/10/27 12:53:10;;;;;;;4.03;1.90;;;47.30;13.20;;;;;;5015460;28;20443;-67
2022/10/27 12:55:48;;;;;;;5.83;2.07;;;47.40;13.00;;;;;;5015163;28;20521;-67
2022/10/27 12:58:26;;;;;;;7.00;2.03;;;47.40;13.40;;;;;;5015382;28;20513;-67
2022/10/27 13:01:05;;;;;;;6.90;1.80;;;47.20;13.70;;;;;;5014838;28;20438;-66
2022/10/27 13:04:23;;;;;;;4.27;1.83;;;46.60;14.00;;;;;;5014760;28;20567;-68
2022/10/27 13:07:26;;;;;;;3.33;2.00;;;46.20;14.50;;;;;;4954474;29;20537;-68
2022/10/27 13:10:23;;;;;;;4.87;2.47;;;45.50;15.10;;;;;;4985939;28;20438;-68